sensor_id;sensor_type;location;lat;lon;timestamp;pressure;altitude;pressure_sealevel;temperature;humidity
62725;BME280;49026;52.600;4.694;2023-02-18T00:00:18;102147.78;;;8.87;88.34
62725;BME280;49026;52.600;4.694;2023-02-18T00:02:45;102151.25;;;8.88;88.78
62725;BME280;49026;52.600;4.694;2023-02-18T00:05:11;102149.53;;;8.87;88.57
62725;BME280;49026;52.600;4.694;2023-02-18T00:07:40;102147.81;;;8.86;88.66
62725;BME280;49026;52.600;4.694;2023-02-18T00:10:11;102143.44;;;8.85;88.46
62725;BME280;49026;52.600;4.694;2023-02-18T00:12:37;102139.97;;;8.84;88.75
62725;BME280;49026;52.600;4.694;2023-02-18T00:15:03;102144.31;;;8.85;88.77
62725;BME280;49026;52.600;4.694;2023-02-18T00:17:28;102139.09;;;8.85;88.84
62725;BME280;49026;52.600;4.694;2023-02-18T00:19:54;102137.31;;;8.86;88.68
62725;BME280;49026;52.600;4.694;2023-02-18T00:22:21;102127.72;;;8.85;88.90
62725;BME280;49026;52.600;4.694;2023-02-18T00:24:46;102138.22;;;8.83;88.72
62725;BME280;49026;52.600;4.694;2023-02-18T00:27:12;102129.53;;;8.80;88.50
62725;BME280;49026;52.600;4.694;2023-02-18T00:29:37;102133.94;;;8.76;88.98
62725;BME280;49026;52.600;4.694;2023-02-18T00:32:02;102126.09;;;8.73;88.88
62725;BME280;49026;52.600;4.694;2023-02-18T00:34:28;102136.63;;;8.68;88.63
62725;BME280;49026;52.600;4.694;2023-02-18T00:36:56;102128.84;;;8.64;89.06
62725;BME280;49026;52.600;4.694;2023-02-18T00:39:23;102133.28;;;8.57;89.13
62725;BME280;49026;52.600;4.694;2023-02-18T00:41:48;102126.31;;;8.55;88.71
62725;BME280;49026;52.600;4.694;2023-02-18T00:44:14;102118.50;;;8.50;88.82
62725;BME280;49026;52.600;4.694;2023-02-18T00:46:41;102115.06;;;8.45;88.68
62725;BME280;49026;52.600;4.694;2023-02-18T00:49:07;102116.81;;;8.41;88.64
62725;BME280;49026;52.600;4.694;2023-02-18T00:51:33;102099.41;;;8.37;89.03
62725;BME280;49026;52.600;4.694;2023-02-18T00:53:58;102109.94;;;8.34;88.73
62725;BME280;49026;52.600;4.694;2023-02-18T00:56:23;102102.97;;;8.30;88.94
62725;BME280;49026;52.600;4.694;2023-02-18T00:58:49;102100.41;;;8.25;88.62
62725;BME280;49026;52.600;4.694;2023-02-18T01:01:15;102089.13;;;8.19;88.60
62725;BME280;49026;52.600;4.694;2023-02-18T01:03:41;102082.19;;;8.13;88.99
62725;BME280;49026;52.600;4.694;2023-02-18T01:06:08;102079.63;;;8.08;88.49
62725;BME280;49026;52.600;4.694;2023-02-18T01:08:37;102081.41;;;8.05;88.86
62725;BME280;49026;52.600;4.694;2023-02-18T01:11:03;102077.94;;;8.03;89.08
62725;BME280;49026;52.600;4.694;2023-02-18T01:13:29;102079.72;;;7.99;88.72
62725;BME280;49026;52.600;4.694;2023-02-18T01:15:55;102071.03;;;7.97;89.17
62725;BME280;49026;52.600;4.694;2023-02-18T01:18:21;102068.41;;;7.97;88.78
62725;BME280;49026;52.600;4.694;2023-02-18T01:20:47;102077.13;;;7.96;89.48
62725;BME280;49026;52.600;4.694;2023-02-18T01:23:15;102089.34;;;7.97;88.68
62725;BME280;49026;52.600;4.694;2023-02-18T01:25:40;102081.53;;;7.94;88.79
62725;BME280;49026;52.600;4.694;2023-02-18T01:28:10;102082.38;;;7.94;89.26
62725;BME280;49026;52.600;4.694;2023-02-18T01:30:36;102066.66;;;7.96;89.21
62725;BME280;49026;52.600;4.694;2023-02-18T01:33:01;102056.19;;;7.97;89.00
62725;BME280;49026;52.600;4.694;2023-02-18T01:35:27;102059.63;;;8.01;89.49
62725;BME280;49026;52.600;4.694;2023-02-18T01:37:52;102063.09;;;8.03;89.41
62725;BME280;49026;52.600;4.694;2023-02-18T01:40:22;102054.38;;;8.04;88.77
62725;BME280;49026;52.600;4.694;2023-02-18T01:42:50;102031.66;;;8.05;89.47
62725;BME280;49026;52.600;4.694;2023-02-18T01:48:11;102016.88;;;8.02;89.23
62725;BME280;49026;52.600;4.694;2023-02-18T01:50:41;102023.84;;;8.00;88.85
62725;BME280;49026;52.600;4.694;2023-02-18T01:53:08;102020.38;;;8.01;89.22
62725;BME280;49026;52.600;4.694;2023-02-18T01:55:34;102005.53;;;8.00;88.72
62725;BME280;49026;52.600;4.694;2023-02-18T01:58:01;102005.53;;;8.00;88.80
62725;BME280;49026;52.600;4.694;2023-02-18T02:00:34;101995.94;;;8.02;88.86
62725;BME280;49026;52.600;4.694;2023-02-18T02:03:01;101995.06;;;8.00;89.33
62725;BME280;49026;52.600;4.694;2023-02-18T02:05:31;101995.09;;;7.98;89.28
62725;BME280;49026;52.600;4.694;2023-02-18T02:08:00;101982.88;;;7.99;89.02
62725;BME280;49026;52.600;4.694;2023-02-18T02:10:40;101964.56;;;7.99;89.39
62725;BME280;49026;52.600;4.694;2023-02-18T02:13:31;101953.19;;;8.00;88.87
62725;BME280;49026;52.600;4.694;2023-02-18T02:16:16;101947.94;;;8.00;89.10
62725;BME280;49026;52.600;4.694;2023-02-18T02:18:57;101937.53;;;7.97;88.61
62725;BME280;49026;52.600;4.694;2023-02-18T02:22:09;101935.78;;;7.96;88.71
62725;BME280;49026;52.600;4.694;2023-02-18T02:25:08;101933.16;;;7.97;89.01
62725;BME280;49026;52.600;4.694;2023-02-18T02:28:20;101936.66;;;7.96;88.72
62725;BME280;49026;52.600;4.694;2023-02-18T02:31:25;101926.19;;;7.96;88.66
62725;BME280;49026;52.600;4.694;2023-02-18T02:37:13;101913.06;;;7.98;89.29
62725;BME280;49026;52.600;4.694;2023-02-18T02:40:06;101899.06;;;8.04;88.75
62725;BME280;49026;52.600;4.694;2023-02-18T02:42:48;101898.94;;;8.11;89.33
62725;BME280;49026;52.600;4.694;2023-02-18T02:48:27;101891.81;;;8.23;89.07
62725;BME280;49026;52.600;4.694;2023-02-18T02:51:06;101900.50;;;8.25;88.88
62725;BME280;49026;52.600;4.694;2023-02-18T02:53:35;101893.50;;;8.27;88.82
62725;BME280;49026;52.600;4.694;2023-02-18T02:56:00;101893.47;;;8.28;89.29
62725;BME280;49026;52.600;4.694;2023-02-18T02:58:26;101879.53;;;8.28;89.58
62725;BME280;49026;52.600;4.694;2023-02-18T03:12:18;101845.38;;;8.35;89.63
62725;BME280;49026;52.600;4.694;2023-02-18T03:17:29;101846.22;;;8.38;89.47
62725;BME280;49026;52.600;4.694;2023-02-18T03:20:31;101834.88;;;8.39;89.93
62725;BME280;49026;52.600;4.694;2023-02-18T03:23:03;101826.09;;;8.40;90.02
62725;BME280;49026;52.600;4.694;2023-02-18T03:25:35;101806.91;;;8.41;90.23
62725;BME280;49026;52.600;4.694;2023-02-18T03:28:08;101789.41;;;8.41;89.95
62725;BME280;49026;52.600;4.694;2023-02-18T03:30:42;101783.31;;;8.42;90.37
62725;BME280;49026;52.600;4.694;2023-02-18T03:33:14;101781.50;;;8.47;90.45
62725;BME280;49026;52.600;4.694;2023-02-18T03:35:42;101785.81;;;8.50;90.44
62725;BME280;49026;52.600;4.694;2023-02-18T03:38:15;101795.38;;;8.52;90.46
62725;BME280;49026;52.600;4.694;2023-02-18T03:40:46;101796.19;;;8.56;90.55
62725;BME280;49026;52.600;4.694;2023-02-18T03:43:12;101797.06;;;8.57;90.62
62725;BME280;49026;52.600;4.694;2023-02-18T03:45:37;101783.94;;;8.58;91.00
62725;BME280;49026;52.600;4.694;2023-02-18T03:48:03;101786.56;;;8.57;90.56
62725;BME280;49026;52.600;4.694;2023-02-18T03:50:28;101791.00;;;8.53;91.15
62725;BME280;49026;52.600;4.694;2023-02-18T03:52:56;101783.28;;;8.45;91.14
62725;BME280;49026;52.600;4.694;2023-02-18T03:55:21;101775.50;;;8.39;90.76
62725;BME280;49026;52.600;4.694;2023-02-18T03:57:49;101775.56;;;8.34;91.18
62725;BME280;49026;52.600;4.694;2023-02-18T04:00:17;101762.53;;;8.30;91.06
62725;BME280;49026;52.600;4.694;2023-02-18T04:02:43;101762.56;;;8.27;90.87
62725;BME280;49026;52.600;4.694;2023-02-18T04:05:09;101766.09;;;8.26;91.42
62725;BME280;49026;52.600;4.694;2023-02-18T04:07:34;101763.50;;;8.24;91.03
62725;BME280;49026;52.600;4.694;2023-02-18T04:10:00;101754.81;;;8.22;91.44
62725;BME280;49026;52.600;4.694;2023-02-18T04:12:25;101753.13;;;8.18;91.66
62725;BME280;49026;52.600;4.694;2023-02-18T04:14:51;101751.47;;;8.12;91.66
62725;BME280;49026;52.600;4.694;2023-02-18T04:17:16;101741.88;;;8.11;91.67
62725;BME280;49026;52.600;4.694;2023-02-18T04:19:41;101727.13;;;8.07;91.46
62725;BME280;49026;52.600;4.694;2023-02-18T04:22:09;101737.63;;;8.04;91.89
62725;BME280;49026;52.600;4.694;2023-02-18T04:24:34;101725.41;;;8.05;91.42
62725;BME280;49026;52.600;4.694;2023-02-18T04:27:01;101725.41;;;8.03;91.94
62725;BME280;49026;52.600;4.694;2023-02-18T04:29:29;101722.84;;;8.00;91.59
62725;BME280;49026;52.600;4.694;2023-02-18T04:31:55;101722.00;;;7.98;91.87
62725;BME280;49026;52.600;4.694;2023-02-18T04:34:20;101723.78;;;7.97;92.23
62725;BME280;49026;52.600;4.694;2023-02-18T04:36:48;101710.69;;;7.96;91.59
62725;BME280;49026;52.600;4.694;2023-02-18T04:39:13;101730.75;;;7.97;91.84
62725;BME280;49026;52.600;4.694;2023-02-18T04:41:39;101712.44;;;7.97;92.14
62725;BME280;49026;52.600;4.694;2023-02-18T04:44:04;101719.44;;;7.95;92.50
62725;BME280;49026;52.600;4.694;2023-02-18T04:46:30;101701.09;;;7.95;91.79
62725;BME280;49026;52.600;4.694;2023-02-18T04:48:59;101701.09;;;7.96;92.54
62725;BME280;49026;52.600;4.694;2023-02-18T04:51:24;101705.44;;;7.99;92.52
62725;BME280;49026;52.600;4.694;2023-02-18T04:53:49;101707.13;;;8.00;93.02
62725;BME280;49026;52.600;4.694;2023-02-18T04:56:14;101685.31;;;8.01;92.46
62725;BME280;49026;52.600;4.694;2023-02-18T04:58:40;101690.50;;;8.04;92.96
62725;BME280;49026;52.600;4.694;2023-02-18T05:01:08;101691.38;;;8.03;93.17
62725;BME280;49026;52.600;4.694;2023-02-18T05:03:33;101675.63;;;8.08;93.38
62725;BME280;49026;52.600;4.694;2023-02-18T05:06:00;101685.16;;;8.12;93.45
62725;BME280;49026;52.600;4.694;2023-02-18T05:08:26;101666.75;;;8.15;93.44
62725;BME280;49026;52.600;4.694;2023-02-18T05:10:51;101663.19;;;8.21;93.26
62725;BME280;49026;52.600;4.694;2023-02-18T05:13:19;101677.16;;;8.20;93.16
62725;BME280;49026;52.600;4.694;2023-02-18T05:15:44;101701.56;;;8.22;93.89
62725;BME280;49026;52.600;4.694;2023-02-18T05:18:10;101697.22;;;8.21;94.06
62725;BME280;49026;52.600;4.694;2023-02-18T05:20:35;101697.22;;;8.22;93.83
62725;BME280;49026;52.600;4.694;2023-02-18T05:23:00;101648.31;;;8.23;94.19
62725;BME280;49026;52.600;4.694;2023-02-18T05:25:31;101689.34;;;8.24;94.01
62725;BME280;49026;52.600;4.694;2023-02-18T05:27:56;101694.56;;;8.24;94.42
62725;BME280;49026;52.600;4.694;2023-02-18T05:30:22;101691.03;;;8.25;94.62
62725;BME280;49026;52.600;4.694;2023-02-18T05:32:49;101691.03;;;8.26;94.58
62725;BME280;49026;52.600;4.694;2023-02-18T05:35:14;101675.31;;;8.26;94.50
62725;BME280;49026;52.600;4.694;2023-02-18T05:37:45;101674.44;;;8.26;94.66
62725;BME280;49026;52.600;4.694;2023-02-18T05:40:11;101675.28;;;8.28;94.41
62725;BME280;49026;52.600;4.694;2023-02-18T05:42:36;101692.75;;;8.29;94.15
62725;BME280;49026;52.600;4.694;2023-02-18T05:45:02;101677.03;;;8.29;94.77
62725;BME280;49026;52.600;4.694;2023-02-18T05:47:27;101661.31;;;8.29;94.51
62725;BME280;49026;52.600;4.694;2023-02-18T05:49:55;101670.03;;;8.29;94.49
62725;BME280;49026;52.600;4.694;2023-02-18T05:52:20;101646.44;;;8.29;94.27
62725;BME280;49026;52.600;4.694;2023-02-18T05:54:46;101647.34;;;8.27;94.39
62725;BME280;49026;52.600;4.694;2023-02-18T05:57:14;101654.38;;;8.25;94.61
62725;BME280;49026;52.600;4.694;2023-02-18T05:59:39;101635.22;;;8.23;94.91
62725;BME280;49026;52.600;4.694;2023-02-18T06:02:05;101634.34;;;8.24;94.54
62725;BME280;49026;52.600;4.694;2023-02-18T06:04:30;101647.44;;;8.24;94.53
62725;BME280;49026;52.600;4.694;2023-02-18T06:06:55;101633.47;;;8.22;94.82
62725;BME280;49026;52.600;4.694;2023-02-18T06:09:25;101640.53;;;8.18;94.76
62725;BME280;49026;52.600;4.694;2023-02-18T06:11:50;101651.03;;;8.16;94.59
62725;BME280;49026;52.600;4.694;2023-02-18T06:14:16;101630.09;;;8.16;94.27
62725;BME280;49026;52.600;4.694;2023-02-18T06:16:44;101633.63;;;8.15;94.56
62725;BME280;49026;52.600;4.694;2023-02-18T06:19:13;101633.63;;;8.14;94.95
62725;BME280;49026;52.600;4.694;2023-02-18T06:21:39;101640.59;;;8.13;94.77
62725;BME280;49026;52.600;4.694;2023-02-18T06:24:07;101639.78;;;8.11;94.32
62725;BME280;49026;52.600;4.694;2023-02-18T06:26:35;101643.31;;;8.10;94.64
62725;BME280;49026;52.600;4.694;2023-02-18T06:29:00;101645.97;;;8.07;94.77
62725;BME280;49026;52.600;4.694;2023-02-18T06:31:28;101654.69;;;8.06;94.40
62725;BME280;49026;52.600;4.694;2023-02-18T06:33:53;101636.41;;;8.03;94.07
62725;BME280;49026;52.600;4.694;2023-02-18T06:36:18;101633.81;;;8.02;94.41
62725;BME280;49026;52.600;4.694;2023-02-18T06:38:44;101639.03;;;8.03;94.67
62725;BME280;49026;52.600;4.694;2023-02-18T06:41:10;101634.72;;;8.02;94.95
62725;BME280;49026;52.600;4.694;2023-02-18T06:43:36;101627.72;;;8.03;94.97
62725;BME280;49026;52.600;4.694;2023-02-18T06:46:02;101632.13;;;8.01;94.74
62725;BME280;49026;52.600;4.694;2023-02-18T06:48:28;101632.94;;;8.04;94.77
62725;BME280;49026;52.600;4.694;2023-02-18T06:50:55;101628.53;;;8.06;94.66
62725;BME280;49026;52.600;4.694;2023-02-18T06:53:20;101602.28;;;8.09;95.01
62725;BME280;49026;52.600;4.694;2023-02-18T06:55:46;101617.09;;;8.12;95.19
62725;BME280;49026;52.600;4.694;2023-02-18T06:58:12;101611.88;;;8.12;95.01
62725;BME280;49026;52.600;4.694;2023-02-18T07:00:37;101597.00;;;8.12;95.19
62725;BME280;49026;52.600;4.694;2023-02-18T07:03:06;101610.09;;;8.12;94.69
62725;BME280;49026;52.600;4.694;2023-02-18T07:05:31;101615.34;;;8.12;94.63
62725;BME280;49026;52.600;4.694;2023-02-18T07:07:59;101610.06;;;8.15;95.01
62725;BME280;49026;52.600;4.694;2023-02-18T07:10:27;101608.28;;;8.16;95.33
62725;BME280;49026;52.600;4.694;2023-02-18T07:12:54;101610.06;;;8.15;94.61
62725;BME280;49026;52.600;4.694;2023-02-18T07:15:20;101615.28;;;8.15;94.62
62725;BME280;49026;52.600;4.694;2023-02-18T07:17:52;101625.81;;;8.12;94.81
62725;BME280;49026;52.600;4.694;2023-02-18T07:20:21;101643.28;;;8.12;95.57
62725;BME280;49026;52.600;4.694;2023-02-18T07:22:47;101641.59;;;8.08;95.33
62725;BME280;49026;52.600;4.694;2023-02-18T07:25:14;101628.50;;;8.08;95.85
62725;BME280;49026;52.600;4.694;2023-02-18T07:27:40;101607.53;;;8.09;95.23
62725;BME280;49026;52.600;4.694;2023-02-18T07:30:06;101624.97;;;8.10;95.92
62725;BME280;49026;52.600;4.694;2023-02-18T07:32:34;101618.84;;;8.10;95.60
62725;BME280;49026;52.600;4.694;2023-02-18T07:34:59;101626.75;;;8.07;95.85
62725;BME280;49026;52.600;4.694;2023-02-18T07:37:25;101628.53;;;8.06;95.63
62725;BME280;49026;52.600;4.694;2023-02-18T07:39:52;101617.19;;;8.06;96.08
62725;BME280;49026;52.600;4.694;2023-02-18T07:42:18;101620.72;;;8.03;95.68
62725;BME280;49026;52.600;4.694;2023-02-18T07:44:43;101632.97;;;8.01;95.49
62725;BME280;49026;52.600;4.694;2023-02-18T07:47:12;101618.13;;;8.02;95.55
62725;BME280;49026;52.600;4.694;2023-02-18T07:49:41;101620.75;;;8.02;95.49
62725;BME280;49026;52.600;4.694;2023-02-18T07:52:06;101623.38;;;8.00;95.77
62725;BME280;49026;52.600;4.694;2023-02-18T07:54:32;101619.97;;;7.96;95.21
62725;BME280;49026;52.600;4.694;2023-02-18T07:57:00;101631.34;;;7.94;95.73
62725;BME280;49026;52.600;4.694;2023-02-18T07:59:25;101634.81;;;7.94;95.39
62725;BME280;49026;52.600;4.694;2023-02-18T08:01:50;101622.63;;;7.93;95.48
62725;BME280;49026;52.600;4.694;2023-02-18T08:04:15;101627.94;;;7.90;95.53
62725;BME280;49026;52.600;4.694;2023-02-18T08:06:43;101640.09;;;7.91;96.30
62725;BME280;49026;52.600;4.694;2023-02-18T08:09:10;101618.28;;;7.94;95.89
62725;BME280;49026;52.600;4.694;2023-02-18T08:11:35;101601.69;;;7.93;95.98
62725;BME280;49026;52.600;4.694;2023-02-18T08:14:01;101643.56;;;7.93;96.19
62725;BME280;49026;52.600;4.694;2023-02-18T08:16:26;101640.88;;;7.98;96.03
62725;BME280;49026;52.600;4.694;2023-02-18T08:18:52;101650.50;;;7.97;96.49
62725;BME280;49026;52.600;4.694;2023-02-18T08:21:19;101617.28;;;8.01;96.44
62725;BME280;49026;52.600;4.694;2023-02-18T08:23:45;101637.34;;;8.02;96.61
62725;BME280;49026;52.600;4.694;2023-02-18T08:26:20;101638.22;;;8.01;96.62
62725;BME280;49026;52.600;4.694;2023-02-18T08:28:46;101646.06;;;8.01;96.70
62725;BME280;49026;52.600;4.694;2023-02-18T08:31:23;101637.34;;;8.02;95.96
62725;BME280;49026;52.600;4.694;2023-02-18T08:33:50;101644.31;;;8.00;96.08
62725;BME280;49026;52.600;4.694;2023-02-18T08:36:18;101649.56;;;8.00;96.71
62725;BME280;49026;52.600;4.694;2023-02-18T08:38:44;101648.69;;;8.01;96.34
62725;BME280;49026;52.600;4.694;2023-02-18T08:41:10;101627.69;;;8.04;96.54
62725;BME280;49026;52.600;4.694;2023-02-18T08:43:38;101636.31;;;8.09;96.29
62725;BME280;49026;52.600;4.694;2023-02-18T08:46:03;101642.44;;;8.08;96.12
62725;BME280;49026;52.600;4.694;2023-02-18T08:48:29;101629.31;;;8.11;95.81
62725;BME280;49026;52.600;4.694;2023-02-18T08:50:54;101641.50;;;8.12;95.68
62725;BME280;49026;52.600;4.694;2023-02-18T08:53:20;101659.81;;;8.14;95.60
62725;BME280;49026;52.600;4.694;2023-02-18T08:55:50;101651.97;;;8.14;95.94
62725;BME280;49026;52.600;4.694;2023-02-18T08:58:16;101647.59;;;8.14;95.58
62725;BME280;49026;52.600;4.694;2023-02-18T09:00:43;101650.97;;;8.20;94.96
62725;BME280;49026;52.600;4.694;2023-02-18T09:03:12;101668.38;;;8.25;95.33
62725;BME280;49026;52.600;4.694;2023-02-18T09:05:41;101665.59;;;8.33;95.47
62725;BME280;49026;52.600;4.694;2023-02-18T09:08:06;101645.41;;;8.38;95.27
62725;BME280;49026;52.600;4.694;2023-02-18T09:10:32;101666.38;;;8.38;94.67
62725;BME280;49026;52.600;4.694;2023-02-18T09:12:57;101667.31;;;8.35;95.08
62725;BME280;49026;52.600;4.694;2023-02-18T09:15:22;101675.13;;;8.39;95.00
62725;BME280;49026;52.600;4.694;2023-02-18T09:17:47;101672.44;;;8.40;94.67
62725;BME280;49026;52.600;4.694;2023-02-18T09:20:13;101664.59;;;8.40;94.65
62725;BME280;49026;52.600;4.694;2023-02-18T09:22:38;101646.22;;;8.43;94.14
62725;BME280;49026;52.600;4.694;2023-02-18T09:25:04;101680.19;;;8.48;94.62
62725;BME280;49026;52.600;4.694;2023-02-18T09:27:30;101674.94;;;8.49;94.43
62725;BME280;49026;52.600;4.694;2023-02-18T09:29:55;101681.84;;;8.53;94.29
62725;BME280;49026;52.600;4.694;2023-02-18T09:32:20;101692.19;;;8.61;94.02
62725;BME280;49026;52.600;4.694;2023-02-18T09:34:46;101693.03;;;8.62;94.47
62725;BME280;49026;52.600;4.694;2023-02-18T09:37:11;101680.81;;;8.64;94.51
62725;BME280;49026;52.600;4.694;2023-02-18T09:39:38;101664.88;;;8.75;94.30
62725;BME280;49026;52.600;4.694;2023-02-18T09:42:11;101679.88;;;9.10;93.99
62725;BME280;49026;52.600;4.694;2023-02-18T09:44:43;101707.69;;;9.19;93.79
62725;BME280;49026;52.600;4.694;2023-02-18T09:50:04;101700.09;;;9.05;93.81
62725;BME280;49026;52.600;4.694;2023-02-18T09:52:35;101718.53;;;9.00;94.07
62725;BME280;49026;52.600;4.694;2023-02-18T09:55:15;101708.97;;;8.98;93.90
62725;BME280;49026;52.600;4.694;2023-02-18T09:57:52;101710.78;;;8.94;93.84
62725;BME280;49026;52.600;4.694;2023-02-18T10:00:30;101700.44;;;8.86;93.58
62725;BME280;49026;52.600;4.694;2023-02-18T10:03:00;101696.19;;;8.82;93.88
62725;BME280;49026;52.600;4.694;2023-02-18T10:05:31;101710.06;;;8.86;93.99
62725;BME280;49026;52.600;4.694;2023-02-18T10:08:03;101717.03;;;8.87;93.94
62725;BME280;49026;52.600;4.694;2023-02-18T10:10:42;101711.75;;;8.88;93.65
62725;BME280;49026;52.600;4.694;2023-02-18T10:13:20;101711.66;;;8.95;93.57
62725;BME280;49026;52.600;4.694;2023-02-18T10:15:46;101721.13;;;9.02;93.25
62725;BME280;49026;52.600;4.694;2023-02-18T10:18:20;101718.19;;;9.19;93.49
62725;BME280;49026;52.600;4.694;2023-02-18T10:20:50;101707.94;;;9.47;93.05
62725;BME280;49026;52.600;4.694;2023-02-18T10:23:18;101709.75;;;9.86;92.36
62725;BME280;49026;52.600;4.694;2023-02-18T10:25:47;101727.28;;;10.21;91.97
62725;BME280;49026;52.600;4.694;2023-02-18T10:28:13;101730.22;;;10.45;91.44
62725;BME280;49026;52.600;4.694;2023-02-18T10:30:42;101726.22;;;10.64;91.04
62725;BME280;49026;52.600;4.694;2023-02-18T10:36:01;101737.22;;;10.79;90.67
62725;BME280;49026;52.600;4.694;2023-02-18T10:38:54;101754.91;;;10.72;90.52
62725;BME280;49026;52.600;4.694;2023-02-18T10:44:16;101747.41;;;10.58;91.36
62725;BME280;49026;52.600;4.694;2023-02-18T10:47:19;101748.34;;;10.55;91.36
62725;BME280;49026;52.600;4.694;2023-02-18T10:49:59;101746.31;;;10.32;91.20
62725;BME280;49026;52.600;4.694;2023-02-18T10:52:31;101757.47;;;10.03;90.78
62725;BME280;49026;52.600;4.694;2023-02-18T10:55:04;101754.41;;;9.84;91.64
62725;BME280;49026;52.600;4.694;2023-02-18T10:57:31;101736.25;;;9.73;91.49
62725;BME280;49026;52.600;4.694;2023-02-18T11:00:00;101753.81;;;9.71;92.01
62725;BME280;49026;52.600;4.694;2023-02-18T11:02:30;101756.41;;;9.73;91.29
62725;BME280;49026;52.600;4.694;2023-02-18T11:04:58;101771.19;;;9.75;91.46
62725;BME280;49026;52.600;4.694;2023-02-18T11:07:30;101770.94;;;9.88;91.50
62725;BME280;49026;52.600;4.694;2023-02-18T11:09:59;101751.88;;;10.17;91.28
62725;BME280;49026;52.600;4.694;2023-02-18T11:12:32;101752.06;;;10.47;90.88
62725;BME280;49026;52.600;4.694;2023-02-18T11:15:17;101765.69;;;10.63;90.82
62725;BME280;49026;52.600;4.694;2023-02-18T11:17:49;101766.69;;;10.57;90.79
62725;BME280;49026;52.600;4.694;2023-02-18T11:22:47;101761.44;;;10.57;91.19
62725;BME280;49026;52.600;4.694;2023-02-18T11:25:22;101775.59;;;10.51;91.14
62725;BME280;49026;52.600;4.694;2023-02-18T11:27:56;101755.69;;;10.43;91.17
62725;BME280;49026;52.600;4.694;2023-02-18T11:30:46;101767.97;;;10.41;91.60
62725;BME280;49026;52.600;4.694;2023-02-18T11:33:22;101755.44;;;10.86;91.49
62725;BME280;49026;52.600;4.694;2023-02-18T11:35:56;101767.44;;;10.97;91.32
62725;BME280;49026;52.600;4.694;2023-02-18T11:38:27;101759.53;;;10.97;91.40
62725;BME280;49026;52.600;4.694;2023-02-18T11:41:09;101759.19;;;10.78;91.11
62725;BME280;49026;52.600;4.694;2023-02-18T11:43:35;101768.28;;;10.64;91.49
62725;BME280;49026;52.600;4.694;2023-02-18T11:46:16;101768.44;;;10.58;91.78
62725;BME280;49026;52.600;4.694;2023-02-18T11:48:44;101758.88;;;10.54;91.52
62725;BME280;49026;52.600;4.694;2023-02-18T11:54:02;101766.00;;;10.85;91.61
62725;BME280;49026;52.600;4.694;2023-02-18T11:56:32;101762.44;;;10.86;91.58
62725;BME280;49026;52.600;4.694;2023-02-18T11:58:59;101754.00;;;10.74;91.33
62725;BME280;49026;52.600;4.694;2023-02-18T12:04:26;101751.22;;;10.46;91.36
62725;BME280;49026;52.600;4.694;2023-02-18T12:09:43;101755.69;;;10.43;91.25
62725;BME280;49026;52.600;4.694;2023-02-18T12:12:18;101760.00;;;10.44;91.13
62725;BME280;49026;52.600;4.694;2023-02-18T12:14:44;101761.44;;;10.57;91.21
62725;BME280;49026;52.600;4.694;2023-02-18T12:20:18;101761.47;;;10.55;91.06
62725;BME280;49026;52.600;4.694;2023-02-18T12:27:48;101766.34;;;10.36;91.13
62725;BME280;49026;52.600;4.694;2023-02-18T12:32:55;101777.84;;;10.31;91.43
62725;BME280;49026;52.600;4.694;2023-02-18T12:38:26;101770.69;;;10.37;91.10
62725;BME280;49026;52.600;4.694;2023-02-18T12:43:39;101774.94;;;10.43;90.88
62725;BME280;49026;52.600;4.694;2023-02-18T12:54:42;101760.06;;;10.77;89.60
62725;BME280;49026;52.600;4.694;2023-02-18T12:57:21;101769.31;;;10.91;88.63
62725;BME280;49026;52.600;4.694;2023-02-18T12:59:58;101780.97;;;10.81;88.92
62725;BME280;49026;52.600;4.694;2023-02-18T13:05:30;101771.16;;;11.80;87.90
62725;BME280;49026;52.600;4.694;2023-02-18T13:13:13;101771.56;;;11.98;85.49
62725;BME280;49026;52.600;4.694;2023-02-18T13:15:47;101781.44;;;11.90;85.77
62725;BME280;49026;52.600;4.694;2023-02-18T13:18:20;101771.97;;;11.82;85.75
62725;BME280;49026;52.600;4.694;2023-02-18T13:20:53;101772.63;;;11.61;85.64
62725;BME280;49026;52.600;4.694;2023-02-18T13:23:27;101779.25;;;11.74;86.21
62725;BME280;49026;52.600;4.694;2023-02-18T13:26:05;101776.91;;;12.23;85.63
62725;BME280;49026;52.600;4.694;2023-02-18T13:39:08;101780.19;;;11.73;85.67
62725;BME280;49026;52.600;4.694;2023-02-18T13:41:37;101786.50;;;11.66;84.85
62725;BME280;49026;52.600;4.694;2023-02-18T13:46:55;101785.78;;;11.31;85.78
62725;BME280;49026;52.600;4.694;2023-02-18T13:49:23;101788.41;;;11.31;85.17
62725;BME280;49026;52.600;4.694;2023-02-18T13:51:52;101785.66;;;11.34;85.54
62725;BME280;49026;52.600;4.694;2023-02-18T13:54:27;101791.16;;;11.26;85.57
62725;BME280;49026;52.600;4.694;2023-02-18T13:57:00;101786.91;;;11.21;85.66
62725;BME280;49026;52.600;4.694;2023-02-18T13:59:39;101797.88;;;11.05;85.53
62725;BME280;49026;52.600;4.694;2023-02-18T14:05:14;101809.31;;;10.70;85.84
62725;BME280;49026;52.600;4.694;2023-02-18T14:17:50;101800.66;;;10.27;86.58
62725;BME280;49026;52.600;4.694;2023-02-18T14:25:52;101804.56;;;10.11;86.74
62725;BME280;49026;52.600;4.694;2023-02-18T14:28:38;101817.06;;;9.99;87.04
62725;BME280;49026;52.600;4.694;2023-02-18T14:33:59;101823.22;;;9.97;87.50
62725;BME280;49026;52.600;4.694;2023-02-18T14:36:35;101828.50;;;9.95;87.75
62725;BME280;49026;52.600;4.694;2023-02-18T14:41:56;101825.03;;;9.95;87.59
62725;BME280;49026;52.600;4.694;2023-02-18T14:44:42;101810.28;;;9.89;87.99
62725;BME280;49026;52.600;4.694;2023-02-18T14:49:59;101808.69;;;9.80;87.92
62725;BME280;49026;52.600;4.694;2023-02-18T14:54:53;101805.50;;;9.68;88.29
62725;BME280;49026;52.600;4.694;2023-02-18T14:57:21;101817.78;;;9.66;88.46
62725;BME280;49026;52.600;4.694;2023-02-18T14:59:56;101816.09;;;9.63;88.55
62725;BME280;49026;52.600;4.694;2023-02-18T15:02:27;101810.81;;;9.64;88.68
62725;BME280;49026;52.600;4.694;2023-02-18T15:05:10;101811.81;;;9.59;88.65
62725;BME280;49026;52.600;4.694;2023-02-18T15:07:36;101824.03;;;9.58;88.80